Latest Weather Observations for Cloncurry

IDQ60801

Issued at 7:35 am EST Saturday 20 September 2014 (issued every 30 minutes, with the page automatically refreshed every 10 minutes)

About weather observations | Map of weather stations | Latest weather observations for QLD | Other Formats
Station Details ID: 029141 Name: CLONCURRY AIRPORT Lat: -20.67 Lon: 140.50 Height: 186.0 m
Data from the previous 72 hours. | See also: Recent months at Cloncurry
Date/Time
EST
Temp
°C
App
Temp
°C
Dew
Point
Rel
Hum
%
Delta-T
°C
Wind Press
QNH
hPa
Press
MSL
hPa
Rain
since 9 am
mm
Dir
 
Spd
km/h
Gust
km/h
Spd
kts
Gust
kts
20/07:30am 22.2 16.0 -3.2 18 10.8 E 20 28 11 15 1018.2 1017.3 0.0
20/07:00am 21.3 16.0 -3.2 19 10.3 SE 15 19 8 10 1017.9 1017.0 0.0
20/06:30am 20.9 16.0 -3.6 19 10.3 SSE 13 17 7 9 1017.5 1016.6 0.0
20/06:00am 21.4 15.8 -3.1 19 10.4 SE 17 20 9 11 1016.8 1015.9 0.0
20/05:30am 21.9 14.9 -3.5 18 10.7 ESE 24 32 13 17 1016.4 1015.5 0.0
20/05:00am 22.4 16.1 -3.8 17 11.1 SE 20 30 11 16 1016.2 1015.3 0.0
20/04:30am 22.6 16.6 -2.9 18 11.0 SE 19 26 10 14 1016.2 1015.3 0.0
20/04:00am 22.8 17.2 -2.7 18 11.0 SE 17 24 9 13 1016.2 1015.3 0.0
20/03:30am 23.3 17.3 -3.1 17 11.4 SE 19 22 10 12 1016.3 1015.4 0.0
20/03:00am 23.7 18.5 -2.8 17 11.5 SE 15 22 8 12 1016.7 1015.8 0.0
20/02:30am 21.2 17.3 -1.3 22 9.9 ESE 9 15 5 8 1016.8 1015.9 0.0
20/02:00am 17.9 13.9 -5.3 20 9.1 SSW 7 9 4 5 1016.8 1015.9 0.0
20/01:30am 21.0 16.9 -2.8 20 10.1 S 9 11 5 6 1016.9 1016.0 0.0
20/01:00am 19.9 17.4 -3.7 20 9.7 CALM 0 0 0 0 1017.1 1016.2 0.0
20/12:30am 19.4 16.9 -4.1 20 9.6 CALM 0 0 0 0 1017.1 1016.2 0.0
20/12:00am 19.9 15.3 -4.4 19 9.9 S 11 11 6 6 1017.2 1016.3 0.0
 
Date/Time
EST
Temp
°C
App
Temp
°C
Dew
Point
Rel
Hum
%
Delta-T
°C
Wind Press
QNH
hPa
Press
MSL
hPa
Rain
since 9 am
mm
Dir
 
Spd
km/h
Gust
km/h
Spd
kts
Gust
kts
19/11:30pm 22.0 17.9 -3.4 18 10.8 ENE 9 13 5 7 1017.4 1016.5 0.0
19/11:00pm 21.5 17.3 -3.8 18 10.6 S 9 13 5 7 1017.3 1016.4 0.0
19/10:30pm 20.9 17.2 -5.0 17 10.5 SSE 6 7 3 4 1017.4 1016.5 0.0
19/10:00pm 21.8 18.0 -5.9 15 11.2 S 6 7 3 4 1017.3 1016.4 0.0
19/09:30pm 24.0 19.9 -3.3 16 11.8 SSE 9 11 5 6 1017.1 1016.2 0.0
19/09:00pm 24.0 20.6 -5.1 14 12.2 SSE 4 7 2 4 1017.0 1016.1 0.0
19/08:30pm 25.2 20.5 -5.1 13 12.8 SSE 11 13 6 7 1016.6 1015.7 0.0
19/08:00pm 25.8 21.8 -5.7 12 13.2 ESE 7 9 4 5 1016.2 1015.3 0.0
19/07:30pm 28.2 23.9 -5.0 11 14.4 ESE 9 9 5 5 1015.6 1014.7 0.0
19/07:00pm 29.5 24.9 -4.0 11 15.0 ESE 11 13 6 7 1015.1 1014.2 0.0
19/06:30pm 31.1 25.4 -4.1 10 15.9 ESE 17 22 9 12 1014.7 1013.7 0.0
19/06:00pm 32.0 27.1 -3.4 10 16.3 SSE 13 20 7 11 1014.5 1013.5 0.0
19/05:30pm 32.6 26.5 -4.3 9 16.8 SE 19 26 10 14 1014.4 1013.4 0.0
19/05:00pm 33.0 27.7 -4.0 9 17.0 SSE 15 30 8 16 1014.2 1013.2 0.0
19/04:30pm 32.7 26.9 -4.3 9 16.9 S 17 24 9 13 1014.3 1013.3 0.0
19/04:00pm 32.4 26.6 -4.5 9 16.7 SSE 17 28 9 15 1014.4 1013.4 0.0
19/03:30pm 33.0 28.0 -4.0 9 17.0 S 13 32 7 17 1014.8 1013.9 0.0
19/03:00pm 32.6 26.5 -4.3 9 16.8 SE 19 24 10 13 1015.1 1014.2 0.0
19/02:30pm 32.0 25.5 -6.3 8 16.8 SE 20 30 11 16 1015.6 1014.7 0.0
19/02:00pm 31.1 25.1 -7.0 8 16.4 ESE 17 28 9 15 1016.0 1015.1 0.0
19/01:30pm 31.0 25.7 -7.1 8 16.4 ESE 13 30 7 16 1016.7 1015.8 0.0
19/01:00pm 30.8 25.5 -7.2 8 16.2 ESE 13 26 7 14 1017.4 1016.5 0.0
19/12:30pm 29.9 25.1 -6.4 9 15.6 E 11 24 6 13 1018.0 1017.1 0.0
19/12:00pm 29.8 23.8 -6.4 9 15.5 ENE 17 22 9 12 1018.4 1017.5 0.0
19/11:30am 28.9 22.6 -5.7 10 15.0 ESE 19 28 10 15 1019.2 1018.2 0.0
19/11:00am 28.6 22.3 -6.0 10 14.8 E 19 28 10 15 1019.7 1018.8 0.0
19/10:30am 27.9 21.5 -5.2 11 14.3 ESE 20 26 11 14 1020.1 1019.2 0.0
19/10:00am 26.9 19.3 -6.0 11 13.9 ESE 26 32 14 17 1020.3 1019.4 0.0
19/09:30am 26.2 19.0 -5.4 12 13.4 SE 24 30 13 16 1020.3 1019.4 0.0
19/09:00am 24.9 17.6 -6.4 12 12.8 SE 24 32 13 17 1020.2 1019.3 0.0
19/08:30am 23.3 18.1 -6.6 13 12.1 SSE 13 20 7 11 1020.2 1019.3 0.0
19/08:00am 20.6 15.3 -6.9 15 10.7 S 13 15 7 8 1019.8 1018.9 0.0
19/07:30am 18.0 13.1 -6.6 18 9.4 SSW 11 13 6 7 1019.2 1018.2 0.0
19/07:00am 15.3 10.4 -6.9 21 8.2 S 11 13 6 7 1018.7 1017.8 0.0
19/06:30am 15.2 10.3 -7.6 20 8.3 S 11 13 6 7 1018.3 1017.4 0.0
19/06:00am 15.4 10.8 -7.4 20 8.3 S 9 11 5 6 1018.1 1017.2 0.0
19/05:30am 15.7 10.0 -7.2 20 8.4 S 15 17 8 9 1017.7 1016.8 0.0
19/05:00am 16.1 10.4 -7.5 19 8.6 S 15 17 8 9 1017.7 1016.8 0.0
19/04:30am 16.3 11.1 -6.7 20 8.6 S 13 15 7 8 1017.4 1016.5 0.0
19/04:00am 16.3 10.7 -6.7 20 8.6 S 15 15 8 8 1017.4 1016.5 0.0
19/03:30am 17.2 11.6 -5.9 20 8.9 SSW 15 17 8 9 1017.5 1016.6 0.0
19/03:00am 17.7 12.6 -5.5 20 9.0 SW 13 13 7 7 1017.7 1016.8 0.0
19/02:30am 17.5 12.8 -5.0 21 8.8 SSW 11 13 6 7 1017.9 1017.0 0.0
19/02:00am 18.9 13.9 -4.5 20 9.4 S 13 15 7 8 1018.0 1017.1 0.0
19/01:30am 20.0 15.4 -4.3 19 9.9 S 11 13 6 7 1018.1 1017.2 0.0
19/01:00am 20.0 15.0 -4.3 19 9.9 S 13 15 7 8 1018.2 1017.3 0.0
19/12:30am 21.3 15.6 -4.0 18 10.5 S 17 17 9 9 1018.4 1017.5 0.0
19/12:00am 22.0 16.3 -3.4 18 10.8 S 17 19 9 10 1018.4 1017.5 0.0
 
Date/Time
EST
Temp
°C
App
Temp
°C
Dew
Point
Rel
Hum
%
Delta-T
°C
Wind Press
QNH
hPa
Press
MSL
hPa
Rain
since 9 am
mm
Dir
 
Spd
km/h
Gust
km/h
Spd
kts
Gust
kts
18/11:30pm 22.2 16.6 -3.2 18 10.8 S 17 19 9 10 1018.4 1017.5 0.0
18/11:00pm 23.3 18.1 -3.1 17 11.4 S 15 19 8 10 1018.3 1017.4 0.0
18/10:30pm 23.6 18.0 -2.8 17 11.5 S 17 20 9 11 1018.3 1017.4 0.0
18/10:00pm 23.1 18.3 -2.5 18 11.1 S 13 15 7 8 1018.2 1017.3 0.0
18/09:30pm 24.6 19.4 -2.9 16 12.1 S 15 17 8 9 1018.0 1017.1 0.0
18/09:00pm 25.7 20.5 -2.8 15 12.6 S 15 19 8 10 1017.8 1016.9 0.0
18/08:30pm 26.9 21.3 -2.8 14 13.3 S 17 22 9 12 1017.3 1016.4 0.0
18/08:00pm 27.5 21.5 -3.3 13 13.7 S 19 20 10 11 1017.0 1016.1 0.0
18/07:30pm 28.1 22.9 -2.9 13 14.0 S 15 20 8 11 1016.4 1015.5 0.0
18/07:00pm 28.9 22.9 -3.3 12 14.5 S 19 24 10 13 1016.0 1015.1 0.0
18/06:30pm 29.9 24.7 -2.6 12 14.9 S 15 28 8 15 1015.8 1014.9 0.0
18/06:00pm 31.2 24.3 -2.7 11 15.7 S 24 30 13 16 1015.3 1014.4 0.0
18/05:30pm 31.9 25.1 -2.2 11 16.0 S 24 33 13 18 1014.9 1014.0 0.0
18/05:00pm 32.7 26.5 -0.4 12 16.1 S 22 28 12 15 1014.7 1013.7 0.0
18/04:30pm 33.2 27.0 0.0 12 16.3 S 22 43 12 23 1014.6 1013.6 0.0
18/04:00pm 32.7 28.6 -0.4 12 16.1 SSE 11 20 6 11 1014.7 1013.7 0.0
18/03:30pm 32.1 26.8 -0.9 12 15.9 S 17 24 9 13 1015.0 1014.1 0.0
18/03:00pm 32.7 27.4 -0.4 12 16.1 WSW 17 24 9 13 1015.4 1014.5 0.0
18/02:30pm 32.5 26.6 -0.5 12 16.0 SSE 20 26 11 14 1015.8 1014.9 0.0
18/02:00pm 31.7 25.9 -0.1 13 15.4 SSE 20 30 11 16 1016.3 1015.4 0.0
18/01:45pm 31.9 24.2 0.1 13 15.5 SSE 30 50 16 27 1016.5 1015.6 0.0
18/01:30pm 31.1 25.8 -0.5 13 15.2 S 17 33 9 18 1016.8 1015.9 0.0
18/01:00pm 30.4 25.4 -1.1 13 14.9 SE 15 26 8 14 1017.5 1016.6 0.0
18/12:30pm 30.9 25.7 0.3 14 14.9 SSE 17 26 9 14 1018.2 1017.3 0.0
18/12:00pm 29.5 23.8 -0.8 14 14.3 SSE 19 26 10 14 1019.0 1018.1 0.0
18/11:30am 28.9 23.6 -0.3 15 13.9 ESE 17 24 9 13 1019.8 1018.9 0.0
18/11:00am 27.4 21.0 -1.5 15 13.3 SSE 22 30 12 16 1020.3 1019.4 0.0
18/10:30am 27.2 20.5 -0.8 16 13.0 SE 24 30 13 16 1020.7 1019.8 0.0
18/10:00am 25.5 18.8 -1.3 17 12.2 SE 24 30 13 16 1021.1 1020.2 0.0
18/09:30am 25.2 18.2 -0.8 18 11.9 SE 26 33 14 18 1021.2 1020.3 0.0
18/09:00am 24.1 16.7 -0.9 19 11.3 SSE 28 35 15 19 1021.1 1020.2 0.0
18/08:30am 23.4 16.0 -0.8 20 10.9 SE 28 35 15 19 1020.9 1020.0 0.0
18/08:00am 22.6 15.6 -0.2 22 10.3 SSE 26 35 14 19 1020.7 1019.8 0.0
18/07:30am 18.0 14.8 -0.3 29 8.0 S 6 7 3 4 1020.5 1019.6 0.0
18/07:00am 16.8 13.4 -0.4 31 7.4 SSW 7 9 4 5 1020.2 1019.3 0.0
18/06:30am 16.1 12.5 -2.4 28 7.6 SSW 7 7 4 4 1019.9 1019.0 0.0
18/06:00am 17.1 13.6 -1.5 28 7.8 SSW 7 9 4 5 1019.5 1018.6 0.0
18/05:30am 17.5 12.8 -1.7 27 8.1 S 13 15 7 8 1019.0 1018.1 0.0
18/05:00am 18.0 13.2 -2.8 24 8.6 S 13 15 7 8 1018.6 1017.7 0.0
18/04:30am 18.4 13.5 -3.1 23 8.9 S 13 15 7 8 1018.3 1017.4 0.0
18/04:00am 18.7 13.4 -3.4 22 9.1 S 15 17 8 9 1018.1 1017.2 0.0
18/03:30am 18.1 13.1 -3.9 22 8.9 S 13 15 7 8 1017.9 1017.0 0.0
18/03:00am 19.9 15.3 -3.7 20 9.7 SSE 11 13 6 7 1018.0 1017.1 0.0
18/02:30am 20.0 15.1 -3.6 20 9.8 SSE 13 13 7 7 1018.0 1017.1 0.0
18/02:00am 21.0 16.9 -2.8 20 10.1 SSE 9 11 5 6 1018.1 1017.2 0.0
18/01:30am 19.8 14.9 -3.1 21 9.6 S 13 13 7 7 1018.2 1017.3 0.0
18/01:00am 19.8 15.0 -2.5 22 9.4 S 13 13 7 7 1018.3 1017.4 0.0
18/12:30am 20.4 16.0 -2.6 21 9.8 S 11 13 6 7 1018.3 1017.4 0.0
18/12:00am 20.8 16.3 -3.0 20 10.0 S 11 13 6 7 1018.3 1017.4 0.0
 
Date/Time
EST
Temp
°C
App
Temp
°C
Dew
Point
Rel
Hum
%
Delta-T
°C
Wind Press
QNH
hPa
Press
MSL
hPa
Rain
since 9 am
mm
Dir
 
Spd
km/h
Gust
km/h
Spd
kts
Gust
kts
17/11:30pm 21.5 17.1 -2.4 20 10.3 S 11 13 6 7 1018.2 1017.3 0.0
17/11:00pm 22.6 17.8 -2.9 18 11.0 S 13 15 7 8 1018.1 1017.2 0.0
17/10:30pm 22.8 18.0 -2.7 18 11.0 S 13 15 7 8 1017.9 1017.0 0.0
17/10:00pm 23.2 18.6 -4.0 16 11.5 S 11 13 6 7 1017.7 1016.8 0.0
17/09:30pm 24.5 19.2 -3.8 15 12.2 S 15 17 8 9 1017.4 1016.5 0.0
17/09:00pm 24.9 19.9 -4.4 14 12.5 S 13 15 7 8 1017.1 1016.2 0.0
17/08:30pm 26.5 21.1 -4.1 13 13.3 S 15 17 8 9 1016.7 1015.8 0.0
17/08:00pm 27.9 22.5 -4.1 12 14.1 SSE 15 19 8 10 1016.2 1015.3 0.0
17/07:30pm 28.0 23.3 -5.2 11 14.4 SSE 11 15 6 8 1015.7 1014.8 0.0
17/07:00pm 29.8 25.1 -5.1 10 15.3 ESE 11 13 6 7 1015.3 1014.4 0.0
17/06:30pm 31.2 26.6 -4.0 10 16.0 SE 11 15 6 8 1014.9 1014.0 0.0
17/06:00pm 32.1 26.7 -4.7 9 16.6 E 15 20 8 11 1014.6 1013.6 0.0
17/05:30pm 32.4 27.8 -4.5 9 16.7 SE 11 19 6 10 1014.4 1013.4 0.0
17/05:00pm 32.6 28.0 -4.3 9 16.8 SE 11 24 6 13 1014.3 1013.3 0.0
17/04:30pm 33.2 28.2 -3.9 9 17.1 S 13 22 7 12 1014.2 1013.2 0.0
17/04:00pm 33.3 27.6 -3.8 9 17.1 S 17 26 9 14 1014.2 1013.2 0.0
17/03:30pm 33.2 26.9 -3.9 9 17.1 SE 20 33 11 18 1014.4 1013.4 0.0
17/03:00pm 33.6 27.7 -5.2 8 17.6 S 17 24 9 13 1014.5 1013.5 0.0
17/02:30pm 33.2 27.5 -3.9 9 17.1 S 17 39 9 21 1015.0 1014.1 0.0
17/02:00pm 33.2 27.9 -3.9 9 17.1 SSW 15 20 8 11 1015.4 1014.5 0.0
17/01:30pm 32.7 26.4 -4.3 9 16.9 E 20 30 11 16 1015.7 1014.8 0.0
17/01:00pm 31.9 25.1 -4.9 9 16.5 E 22 37 12 20 1016.2 1015.3 0.0
17/12:30pm 31.6 24.0 -5.1 9 16.4 SE 26 33 14 18 1016.7 1015.8 0.0
17/12:00pm 31.6 23.7 -5.1 9 16.4 E 28 43 15 23 1017.1 1016.2 0.0
17/11:30am 31.1 22.7 -5.5 9 16.2 E 30 39 16 21 1017.5 1016.6 0.0
17/11:00am 30.0 22.7 -6.3 9 15.6 E 24 33 13 18 1017.9 1017.0 0.0
17/10:30am 29.2 22.0 -5.5 10 15.1 E 24 35 13 19 1018.1 1017.2 0.0
17/10:00am 28.7 20.7 -5.9 10 14.8 E 28 35 15 19 1018.3 1017.4 0.0
17/09:30am 27.5 19.1 -5.6 11 14.2 ESE 30 37 16 20 1018.5 1017.6 0.0
17/09:00am 27.3 20.1 -5.7 11 14.0 ESE 24 32 13 17 1018.4 1017.5 -
17/08:30am 24.9 19.8 -5.4 13 12.7 SSE 13 15 7 8 1018.2 1017.3 -
17/08:00am 22.9 18.1 -6.0 14 11.7 S 11 15 6 8 1017.9 1017.0 -

Other Formats:

Comma delimited format used in spreadsheet applications
http://www.bom.gov.au/fwo/IDQ60801/IDQ60801.94335.axf

JavaScript Object Notation format (JSON) in row-major order
http://www.bom.gov.au/fwo/IDQ60801/IDQ60801.94335.json